Winfield, Tennessee
Current Conditions -  °F | °C
As of 6:56 AM on Saturday 20 Dec 2014 (Local Time) from KEKQ Reporting Station
Overcast Overcast  
Wind Chill: 31°   Ceiling: 8000
Heat Index: 31°   Visibility: 8mi
Dew Point: 26°   Wind: 0mph
Humidity: 82%   Direction: NA
Pressure: 30.26"   Gusts: NA
Location:  36.56°N, 84.45°W
Report Text: KEKQ 201156Z AUTO 00000KT 8SM OVC080 M01/M03 A3026 RMK AO2 53009 60000 T10051033 10000 21005 SLP259
Loading
Personal Weather Stations






























Interactive Weather Map New forecast layout! Learn more

10-Day Weather Forecast

Advertisements
Track Severe Weather on mobile